Saint-Barthelemy, Canada
Current Conditions -  °F | °C
As of 11:20 AM on Monday 24 Nov 2014 (Local Time) from CYRQ Reporting Station
Light Rain Light Rain  
Wind Chill: 42°   Ceiling: 800
Heat Index: 48°   Visibility: 9mi
Dew Point: 48°   Wind: 16mph
Humidity: 100%   Direction: 160°SSE
Pressure: 29.38"   Gusts: 24mph
Location:  46.18°N, 73.12°W
Report Text: CYRQ 241620Z AUTO 16014G21KT 9SM -RA BKN008 BKN015 OVC024 09/09 A2938 RMK PRESFR SLP951
Loading
Personal Weather Stations






























Interactive Weather Map New forecast layout! Learn more

10-Day Weather Forecast

Advertisements
Track Severe Weather on mobile